sensor_id;sensor_type;location;lat;lon;timestamp;pressure;altitude;pressure_sealevel;temperature;humidity
54876;BME280;40764;48.472;8.166;2024-02-28T00:05:52;98193.50;;;6.93;100.00
54876;BME280;40764;48.472;8.166;2024-02-28T00:11:53;98190.25;;;6.80;100.00
54876;BME280;40764;48.472;8.166;2024-02-28T00:17:54;98190.22;;;6.91;100.00
54876;BME280;40764;48.472;8.166;2024-02-28T00:23:55;98193.75;;;6.91;100.00
54876;BME280;40764;48.472;8.166;2024-02-28T00:29:56;98193.50;;;7.08;100.00
54876;BME280;40764;48.472;8.166;2024-02-28T00:35:56;98195.38;;;7.33;99.91
54876;BME280;40764;48.472;8.166;2024-02-28T00:41:56;98197.84;;;7.14;100.00
54876;BME280;40764;48.472;8.166;2024-02-28T00:47:57;98196.75;;;7.10;100.00
54876;BME280;40764;48.472;8.166;2024-02-28T00:53:57;98193.50;;;6.93;100.00
54876;BME280;40764;48.472;8.166;2024-02-28T00:59:57;98208.97;;;6.92;100.00
54876;BME280;40764;48.472;8.166;2024-02-28T01:05:57;98207.34;;;7.17;100.00
54876;BME280;40764;48.472;8.166;2024-02-28T01:12:02;98214.97;;;7.35;100.00
54876;BME280;40764;48.472;8.166;2024-02-28T01:18:06;98206.81;;;7.14;100.00
54876;BME280;40764;48.472;8.166;2024-02-28T01:24:06;98213.09;;;7.00;100.00
54876;BME280;40764;48.472;8.166;2024-02-28T01:30:06;98214.69;;;6.70;100.00
54876;BME280;40764;48.472;8.166;2024-02-28T01:36:07;98203.28;;;6.83;100.00
54876;BME280;40764;48.472;8.166;2024-02-28T01:42:07;98203.81;;;6.86;100.00
54876;BME280;40764;48.472;8.166;2024-02-28T01:48:09;98207.91;;;6.93;100.00
54876;BME280;40764;48.472;8.166;2024-02-28T01:54:10;98220.41;;;7.04;100.00
54876;BME280;40764;48.472;8.166;2024-02-28T02:00:11;98226.66;;;7.20;100.00
54876;BME280;40764;48.472;8.166;2024-02-28T02:06:13;98228.84;;;6.98;100.00
54876;BME280;40764;48.472;8.166;2024-02-28T02:12:13;98233.97;;;6.84;100.00
54876;BME280;40764;48.472;8.166;2024-02-28T02:18:14;98241.59;;;6.67;100.00
54876;BME280;40764;48.472;8.166;2024-02-28T02:24:14;98236.16;;;6.67;100.00
54876;BME280;40764;48.472;8.166;2024-02-28T02:30:14;98250.28;;;6.69;100.00
54876;BME280;40764;48.472;8.166;2024-02-28T02:36:15;98249.47;;;6.68;100.00
54876;BME280;40764;48.472;8.166;2024-02-28T02:42:15;98268.75;;;6.67;100.00
54876;BME280;40764;48.472;8.166;2024-02-28T02:48:15;98275.78;;;6.63;100.00
54876;BME280;40764;48.472;8.166;2024-02-28T02:54:16;98285.31;;;6.75;100.00
54876;BME280;40764;48.472;8.166;2024-02-28T03:00:16;98278.00;;;6.71;100.00
54876;BME280;40764;48.472;8.166;2024-02-28T03:06:17;98285.25;;;6.55;100.00
54876;BME280;40764;48.472;8.166;2024-02-28T03:12:17;98296.97;;;6.61;100.00
54876;BME280;40764;48.472;8.166;2024-02-28T03:18:17;98295.66;;;6.73;100.00
54876;BME280;40764;48.472;8.166;2024-02-28T03:24:19;98302.66;;;6.54;100.00
54876;BME280;40764;48.472;8.166;2024-02-28T03:30:19;98307.78;;;6.50;100.00
54876;BME280;40764;48.472;8.166;2024-02-28T03:36:19;98321.84;;;6.32;100.00
54876;BME280;40764;48.472;8.166;2024-02-28T03:42:20;98327.00;;;6.34;100.00
54876;BME280;40764;48.472;8.166;2024-02-28T03:48:21;98325.84;;;6.14;100.00
54876;BME280;40764;48.472;8.166;2024-02-28T03:54:21;98338.09;;;6.27;100.00
54876;BME280;40764;48.472;8.166;2024-02-28T04:00:22;98344.28;;;6.12;100.00
54876;BME280;40764;48.472;8.166;2024-02-28T04:06:22;98349.06;;;6.00;100.00
54876;BME280;40764;48.472;8.166;2024-02-28T04:12:22;98349.84;;;5.90;100.00
54876;BME280;40764;48.472;8.166;2024-02-28T04:18:22;98350.59;;;5.86;100.00
54876;BME280;40764;48.472;8.166;2024-02-28T04:24:23;98357.06;;;5.80;100.00
54876;BME280;40764;48.472;8.166;2024-02-28T04:30:23;98350.97;;;5.63;100.00
54876;BME280;40764;48.472;8.166;2024-02-28T04:36:23;98368.41;;;5.77;100.00
54876;BME280;40764;48.472;8.166;2024-02-28T04:42:24;98376.97;;;5.90;100.00
54876;BME280;40764;48.472;8.166;2024-02-28T04:48:24;98371.13;;;5.77;100.00
54876;BME280;40764;48.472;8.166;2024-02-28T04:54:24;98372.44;;;5.69;100.00
54876;BME280;40764;48.472;8.166;2024-02-28T05:00:24;98366.16;;;5.32;100.00
54876;BME280;40764;48.472;8.166;2024-02-28T05:06:25;98370.56;;;5.11;100.00
54876;BME280;40764;48.472;8.166;2024-02-28T05:12:25;98367.78;;;5.33;100.00
54876;BME280;40764;48.472;8.166;2024-02-28T05:18:25;98375.84;;;5.54;100.00
54876;BME280;40764;48.472;8.166;2024-02-28T05:24:25;98377.13;;;5.20;100.00
54876;BME280;40764;48.472;8.166;2024-02-28T05:30:26;98386.56;;;5.12;100.00
54876;BME280;40764;48.472;8.166;2024-02-28T05:36:28;98402.03;;;5.17;100.00
54876;BME280;40764;48.472;8.166;2024-02-28T05:42:28;98412.03;;;5.11;100.00
54876;BME280;40764;48.472;8.166;2024-02-28T05:48:29;98416.97;;;4.92;100.00
54876;BME280;40764;48.472;8.166;2024-02-28T05:54:29;98424.59;;;4.95;100.00
54876;BME280;40764;48.472;8.166;2024-02-28T06:00:29;98421.69;;;5.02;100.00
54876;BME280;40764;48.472;8.166;2024-02-28T06:06:30;98428.28;;;4.89;100.00
54876;BME280;40764;48.472;8.166;2024-02-28T06:12:30;98444.78;;;5.10;100.00
54876;BME280;40764;48.472;8.166;2024-02-28T06:18:30;98441.03;;;4.89;100.00
54876;BME280;40764;48.472;8.166;2024-02-28T06:24:34;98446.28;;;4.95;100.00
54876;BME280;40764;48.472;8.166;2024-02-28T06:30:34;98453.63;;;5.22;100.00
54876;BME280;40764;48.472;8.166;2024-02-28T06:36:36;98458.69;;;5.40;100.00
54876;BME280;40764;48.472;8.166;2024-02-28T06:42:36;98462.13;;;5.57;100.00
54876;BME280;40764;48.472;8.166;2024-02-28T06:48:36;98475.47;;;5.64;100.00
54876;BME280;40764;48.472;8.166;2024-02-28T06:54:37;98479.56;;;5.67;100.00
54876;BME280;40764;48.472;8.166;2024-02-28T07:00:37;98494.19;;;5.66;100.00
54876;BME280;40764;48.472;8.166;2024-02-28T07:06:37;98494.19;;;5.93;100.00
54876;BME280;40764;48.472;8.166;2024-02-28T07:12:37;98501.03;;;6.00;100.00
54876;BME280;40764;48.472;8.166;2024-02-28T07:18:38;98515.69;;;5.99;100.00
54876;BME280;40764;48.472;8.166;2024-02-28T07:24:38;98527.97;;;6.07;100.00
54876;BME280;40764;48.472;8.166;2024-02-28T07:30:38;98541.97;;;6.26;100.00
54876;BME280;40764;48.472;8.166;2024-02-28T07:36:39;98555.53;;;5.94;100.00
54876;BME280;40764;48.472;8.166;2024-02-28T07:42:39;98554.53;;;6.05;100.00
54876;BME280;40764;48.472;8.166;2024-02-28T07:48:40;98560.56;;;6.39;100.00
54876;BME280;40764;48.472;8.166;2024-02-28T07:54:43;98551.66;;;6.91;100.00
54876;BME280;40764;48.472;8.166;2024-02-28T08:00:44;98558.59;;;7.13;100.00
54876;BME280;40764;48.472;8.166;2024-02-28T08:06:44;98559.41;;;7.14;100.00
54876;BME280;40764;48.472;8.166;2024-02-28T08:12:45;98561.38;;;6.76;100.00
54876;BME280;40764;48.472;8.166;2024-02-28T08:18:45;98573.66;;;6.84;100.00
54876;BME280;40764;48.472;8.166;2024-02-28T08:24:45;98582.44;;;6.59;100.00
54876;BME280;40764;48.472;8.166;2024-02-28T08:30:46;98573.41;;;6.91;100.00
54876;BME280;40764;48.472;8.166;2024-02-28T08:36:46;98583.22;;;7.49;99.76
54876;BME280;40764;48.472;8.166;2024-02-28T08:42:47;98570.31;;;7.82;97.40
54876;BME280;40764;48.472;8.166;2024-02-28T08:48:48;98576.94;;;7.43;99.65
54876;BME280;40764;48.472;8.166;2024-02-28T08:54:48;98592.00;;;7.61;97.03
54876;BME280;40764;48.472;8.166;2024-02-28T09:00:48;98581.53;;;7.33;98.74
54876;BME280;40764;48.472;8.166;2024-02-28T09:06:49;98576.03;;;7.23;100.00
54876;BME280;40764;48.472;8.166;2024-02-28T09:12:52;98583.72;;;7.36;100.00
54876;BME280;40764;48.472;8.166;2024-02-28T09:18:53;98567.69;;;7.39;100.00
54876;BME280;40764;48.472;8.166;2024-02-28T09:24:53;98576.69;;;7.50;99.63
54876;BME280;40764;48.472;8.166;2024-02-28T09:30:53;98570.53;;;7.80;97.91
54876;BME280;40764;48.472;8.166;2024-02-28T09:36:54;98559.75;;;8.26;96.06
54876;BME280;40764;48.472;8.166;2024-02-28T09:43:00;98557.88;;;8.52;93.10
54876;BME280;40764;48.472;8.166;2024-02-28T09:49:03;98562.22;;;8.78;90.98
54876;BME280;40764;48.472;8.166;2024-02-28T09:55:04;98555.34;;;9.06;88.78
54876;BME280;40764;48.472;8.166;2024-02-28T10:01:06;98551.75;;;9.26;85.29
54876;BME280;40764;48.472;8.166;2024-02-28T10:07:12;98554.63;;;9.55;82.92
54876;BME280;40764;48.472;8.166;2024-02-28T10:13:15;98555.00;;;9.82;79.54
54876;BME280;40764;48.472;8.166;2024-02-28T10:19:16;98557.16;;;9.90;75.20
54876;BME280;40764;48.472;8.166;2024-02-28T10:25:17;98559.81;;;10.01;74.93
54876;BME280;40764;48.472;8.166;2024-02-28T10:31:17;98567.13;;;10.10;75.52
54876;BME280;40764;48.472;8.166;2024-02-28T10:37:19;98579.81;;;9.91;76.83
54876;BME280;40764;48.472;8.166;2024-02-28T10:43:22;98583.06;;;9.39;81.44
54876;BME280;40764;48.472;8.166;2024-02-28T10:49:22;98597.72;;;9.53;82.56
54876;BME280;40764;48.472;8.166;2024-02-28T10:55:24;98614.47;;;9.26;81.97
54876;BME280;40764;48.472;8.166;2024-02-28T11:01:25;98628.56;;;9.53;81.89
54876;BME280;40764;48.472;8.166;2024-02-28T11:07:25;98635.75;;;9.29;82.55
54876;BME280;40764;48.472;8.166;2024-02-28T11:13:27;98638.72;;;9.38;82.40
54876;BME280;40764;48.472;8.166;2024-02-28T11:19:28;98641.97;;;9.55;79.74
54876;BME280;40764;48.472;8.166;2024-02-28T11:25:28;98631.47;;;9.87;78.96
54876;BME280;40764;48.472;8.166;2024-02-28T11:31:29;98639.84;;;10.01;78.02
54876;BME280;40764;48.472;8.166;2024-02-28T11:37:29;98630.03;;;10.00;77.86
54876;BME280;40764;48.472;8.166;2024-02-28T11:43:33;98634.88;;;10.08;76.59
54876;BME280;40764;48.472;8.166;2024-02-28T11:49:39;98632.69;;;10.15;76.53
54876;BME280;40764;48.472;8.166;2024-02-28T11:55:39;98626.44;;;10.54;75.74
54876;BME280;40764;48.472;8.166;2024-02-28T12:01:42;98629.31;;;10.34;76.48
54876;BME280;40764;48.472;8.166;2024-02-28T12:07:43;98621.88;;;10.39;75.52
54876;BME280;40764;48.472;8.166;2024-02-28T12:13:44;98616.00;;;10.22;76.07
54876;BME280;40764;48.472;8.166;2024-02-28T12:19:44;98613.63;;;10.49;75.53
54876;BME280;40764;48.472;8.166;2024-02-28T12:25:45;98599.41;;;10.52;76.00
54876;BME280;40764;48.472;8.166;2024-02-28T12:31:45;98587.38;;;10.82;74.12
54876;BME280;40764;48.472;8.166;2024-02-28T12:37:45;98574.47;;;10.88;74.46
54876;BME280;40764;48.472;8.166;2024-02-28T12:43:46;98572.41;;;11.04;72.45
54876;BME280;40764;48.472;8.166;2024-02-28T12:49:46;98571.84;;;11.07;73.63
54876;BME280;40764;48.472;8.166;2024-02-28T12:55:47;98573.47;;;11.08;71.96
54876;BME280;40764;48.472;8.166;2024-02-28T13:01:48;98571.38;;;11.00;72.89
54876;BME280;40764;48.472;8.166;2024-02-28T13:07:48;98563.88;;;11.58;71.08
54876;BME280;40764;48.472;8.166;2024-02-28T13:13:51;98559.75;;;11.37;71.71
54876;BME280;40764;48.472;8.166;2024-02-28T13:19:51;98555.06;;;11.61;70.49
54876;BME280;40764;48.472;8.166;2024-02-28T13:25:52;98542.72;;;11.64;69.71
54876;BME280;40764;48.472;8.166;2024-02-28T13:31:52;98548.75;;;12.03;67.88
54876;BME280;40764;48.472;8.166;2024-02-28T13:37:52;98547.66;;;12.23;66.50
54876;BME280;40764;48.472;8.166;2024-02-28T13:43:54;98548.88;;;12.50;67.34
54876;BME280;40764;48.472;8.166;2024-02-28T13:49:54;98549.66;;;12.18;66.75
54876;BME280;40764;48.472;8.166;2024-02-28T13:55:54;98545.78;;;12.00;67.82
54876;BME280;40764;48.472;8.166;2024-02-28T14:01:55;98541.88;;;12.06;67.46
54876;BME280;40764;48.472;8.166;2024-02-28T14:08:00;98523.03;;;12.37;66.13
54876;BME280;40764;48.472;8.166;2024-02-28T14:14:04;98528.91;;;12.12;67.36
54876;BME280;40764;48.472;8.166;2024-02-28T14:20:05;98529.88;;;12.21;67.64
54876;BME280;40764;48.472;8.166;2024-02-28T14:26:06;98527.94;;;12.21;67.51
54876;BME280;40764;48.472;8.166;2024-02-28T14:32:07;98536.38;;;12.06;67.04
54876;BME280;40764;48.472;8.166;2024-02-28T14:38:07;98543.34;;;11.98;67.55
54876;BME280;40764;48.472;8.166;2024-02-28T14:44:07;98550.31;;;11.91;68.16
54876;BME280;40764;48.472;8.166;2024-02-28T14:50:08;98551.00;;;11.59;69.01
54876;BME280;40764;48.472;8.166;2024-02-28T14:56:13;98553.59;;;11.69;68.78
54876;BME280;40764;48.472;8.166;2024-02-28T15:02:13;98544.72;;;11.77;68.64
54876;BME280;40764;48.472;8.166;2024-02-28T15:08:14;98542.91;;;11.91;68.32
54876;BME280;40764;48.472;8.166;2024-02-28T15:14:14;98546.03;;;11.61;69.09
54876;BME280;40764;48.472;8.166;2024-02-28T15:20:15;98547.25;;;11.49;68.76
54876;BME280;40764;48.472;8.166;2024-02-28T15:26:15;98544.88;;;11.19;69.39
54876;BME280;40764;48.472;8.166;2024-02-28T15:32:15;98546.84;;;11.61;68.25
54876;BME280;40764;48.472;8.166;2024-02-28T15:38:16;98535.38;;;11.59;67.99
54876;BME280;40764;48.472;8.166;2024-02-28T15:44:16;98540.25;;;11.62;67.96
54876;BME280;40764;48.472;8.166;2024-02-28T15:50:17;98538.50;;;11.71;67.15
54876;BME280;40764;48.472;8.166;2024-02-28T15:56:18;98543.63;;;11.54;66.80
54876;BME280;40764;48.472;8.166;2024-02-28T16:02:18;98535.78;;;11.47;66.99
54876;BME280;40764;48.472;8.166;2024-02-28T16:08:19;98534.97;;;11.23;67.20
54876;BME280;40764;48.472;8.166;2024-02-28T16:14:20;98547.28;;;11.02;67.48
54876;BME280;40764;48.472;8.166;2024-02-28T16:20:20;98550.97;;;10.87;67.47
54876;BME280;40764;48.472;8.166;2024-02-28T16:26:20;98548.22;;;10.58;68.19
54876;BME280;40764;48.472;8.166;2024-02-28T16:32:21;98557.28;;;10.53;68.17
54876;BME280;40764;48.472;8.166;2024-02-28T16:38:21;98551.41;;;10.70;67.80
54876;BME280;40764;48.472;8.166;2024-02-28T16:44:21;98556.56;;;10.43;67.32
54876;BME280;40764;48.472;8.166;2024-02-28T16:50:29;98567.56;;;10.33;67.50
54876;BME280;40764;48.472;8.166;2024-02-28T16:56:29;98567.03;;;10.31;68.47
54876;BME280;40764;48.472;8.166;2024-02-28T17:02:36;98567.38;;;10.19;67.89
54876;BME280;40764;48.472;8.166;2024-02-28T17:08:36;98584.03;;;10.22;67.64
54876;BME280;40764;48.472;8.166;2024-02-28T17:14:36;98576.78;;;9.98;68.76
54876;BME280;40764;48.472;8.166;2024-02-28T17:20:37;98590.25;;;9.79;69.80
54876;BME280;40764;48.472;8.166;2024-02-28T17:26:39;98588.13;;;9.71;70.10
54876;BME280;40764;48.472;8.166;2024-02-28T17:32:41;98591.25;;;9.34;72.02
54876;BME280;40764;48.472;8.166;2024-02-28T17:38:41;98594.88;;;9.09;72.92
54876;BME280;40764;48.472;8.166;2024-02-28T17:44:43;98601.41;;;9.13;73.05
54876;BME280;40764;48.472;8.166;2024-02-28T17:50:43;98609.59;;;8.92;73.34
54876;BME280;40764;48.472;8.166;2024-02-28T17:56:43;98622.72;;;8.55;74.94
54876;BME280;40764;48.472;8.166;2024-02-28T18:02:44;98623.53;;;8.50;75.50
54876;BME280;40764;48.472;8.166;2024-02-28T18:08:45;98633.19;;;7.95;78.23
54876;BME280;40764;48.472;8.166;2024-02-28T18:14:45;98618.09;;;7.57;82.20
54876;BME280;40764;48.472;8.166;2024-02-28T18:20:46;98626.47;;;7.45;83.23
54876;BME280;40764;48.472;8.166;2024-02-28T18:26:46;98624.75;;;7.29;83.71
54876;BME280;40764;48.472;8.166;2024-02-28T18:32:46;98631.13;;;7.03;83.98
54876;BME280;40764;48.472;8.166;2024-02-28T18:38:48;98627.22;;;6.94;84.92
54876;BME280;40764;48.472;8.166;2024-02-28T18:44:55;98625.78;;;6.76;86.03
54876;BME280;40764;48.472;8.166;2024-02-28T18:50:56;98626.00;;;6.69;85.86
54876;BME280;40764;48.472;8.166;2024-02-28T18:56:57;98621.69;;;6.73;86.38
54876;BME280;40764;48.472;8.166;2024-02-28T19:02:57;98619.34;;;6.55;88.26
54876;BME280;40764;48.472;8.166;2024-02-28T19:08:59;98612.69;;;6.09;90.02
54876;BME280;40764;48.472;8.166;2024-02-28T19:15:00;98612.31;;;6.00;89.58
54876;BME280;40764;48.472;8.166;2024-02-28T19:21:00;98607.91;;;5.94;90.71
54876;BME280;40764;48.472;8.166;2024-02-28T19:27:00;98608.47;;;5.96;90.81
54876;BME280;40764;48.472;8.166;2024-02-28T19:33:01;98617.94;;;5.94;90.48
54876;BME280;40764;48.472;8.166;2024-02-28T19:39:02;98617.00;;;5.83;91.13
54876;BME280;40764;48.472;8.166;2024-02-28T19:45:06;98619.16;;;5.59;92.25
54876;BME280;40764;48.472;8.166;2024-02-28T19:51:06;98615.03;;;5.35;94.15
54876;BME280;40764;48.472;8.166;2024-02-28T19:57:07;98618.88;;;5.39;94.56
54876;BME280;40764;48.472;8.166;2024-02-28T20:03:07;98613.00;;;5.47;94.13
54876;BME280;40764;48.472;8.166;2024-02-28T20:09:09;98622.63;;;5.33;94.46
54876;BME280;40764;48.472;8.166;2024-02-28T20:15:12;98620.34;;;5.24;94.85
54876;BME280;40764;48.472;8.166;2024-02-28T20:21:14;98610.47;;;5.18;94.73
54876;BME280;40764;48.472;8.166;2024-02-28T20:27:15;98614.31;;;5.01;95.55
54876;BME280;40764;48.472;8.166;2024-02-28T20:33:17;98620.72;;;4.94;96.85
54876;BME280;40764;48.472;8.166;2024-02-28T20:39:20;98612.63;;;4.78;96.97
54876;BME280;40764;48.472;8.166;2024-02-28T20:45:21;98613.19;;;4.80;96.55
54876;BME280;40764;48.472;8.166;2024-02-28T20:51:21;98611.78;;;4.77;96.80
54876;BME280;40764;48.472;8.166;2024-02-28T20:57:23;98607.06;;;4.68;96.34
54876;BME280;40764;48.472;8.166;2024-02-28T21:03:27;98609.75;;;4.34;98.75
54876;BME280;40764;48.472;8.166;2024-02-28T21:09:27;98615.00;;;4.41;99.14
54876;BME280;40764;48.472;8.166;2024-02-28T21:15:27;98623.63;;;4.38;98.96
54876;BME280;40764;48.472;8.166;2024-02-28T21:21:29;98626.31;;;4.38;98.75
54876;BME280;40764;48.472;8.166;2024-02-28T21:27:30;98618.78;;;4.40;98.23
54876;BME280;40764;48.472;8.166;2024-02-28T21:33:30;98614.09;;;4.35;98.47
54876;BME280;40764;48.472;8.166;2024-02-28T21:39:30;98613.59;;;4.21;99.24
54876;BME280;40764;48.472;8.166;2024-02-28T21:45:33;98609.31;;;4.09;98.73
54876;BME280;40764;48.472;8.166;2024-02-28T21:51:34;98597.09;;;4.06;99.04
54876;BME280;40764;48.472;8.166;2024-02-28T21:57:34;98595.84;;;3.97;99.23
54876;BME280;40764;48.472;8.166;2024-02-28T22:03:34;98597.72;;;3.96;99.12
54876;BME280;40764;48.472;8.166;2024-02-28T22:09:35;98588.84;;;3.84;99.32
54876;BME280;40764;48.472;8.166;2024-02-28T22:15:35;98576.41;;;3.55;100.00
54876;BME280;40764;48.472;8.166;2024-02-28T22:21:35;98577.72;;;3.69;100.00
54876;BME280;40764;48.472;8.166;2024-02-28T22:27:36;98567.41;;;3.66;100.00
54876;BME280;40764;48.472;8.166;2024-02-28T22:33:36;98563.16;;;3.70;100.00
54876;BME280;40764;48.472;8.166;2024-02-28T22:39:37;98560.59;;;3.63;100.00
54876;BME280;40764;48.472;8.166;2024-02-28T22:45:38;98559.38;;;3.42;100.00
54876;BME280;40764;48.472;8.166;2024-02-28T22:51:40;98531.41;;;3.20;100.00
54876;BME280;40764;48.472;8.166;2024-02-28T22:57:43;98521.75;;;3.24;100.00
54876;BME280;40764;48.472;8.166;2024-02-28T23:03:45;98518.66;;;3.32;100.00
54876;BME280;40764;48.472;8.166;2024-02-28T23:09:46;98518.94;;;3.19;100.00
54876;BME280;40764;48.472;8.166;2024-02-28T23:15:46;98536.22;;;3.06;100.00
54876;BME280;40764;48.472;8.166;2024-02-28T23:21:48;98516.16;;;3.02;100.00
54876;BME280;40764;48.472;8.166;2024-02-28T23:27:49;98517.38;;;2.83;100.00
54876;BME280;40764;48.472;8.166;2024-02-28T23:33:50;98513.28;;;2.92;100.00
54876;BME280;40764;48.472;8.166;2024-02-28T23:39:53;98519.34;;;2.99;100.00
54876;BME280;40764;48.472;8.166;2024-02-28T23:45:53;98513.19;;;3.16;100.00
54876;BME280;40764;48.472;8.166;2024-02-28T23:51:54;98508.41;;;3.06;100.00
54876;BME280;40764;48.472;8.166;2024-02-28T23:57:55;98496.19;;;3.03;100.00
